Time;durP1;ratioP1;P1;durP2;ratioP2;P2;SDS_P1;SDS_P2;PMS_P1;PMS_P2;Temp;Humidity;BMP_temperature;BMP_pressure;BME280_temperature;BME280_humidity;BME280_pressure;Samples;Min_cycle;Max_cycle;Signal;HPM_P1;HPM_P2
2022/03/16 00:02:20;;;;;;;45.13;28.80;;;6.10;99.90;;;;;;5032222;28;20041;-69
2022/03/16 00:04:50;;;;;;;50.35;29.88;;;6.10;99.90;;;;;;5030898;28;20053;-69
2022/03/16 00:07:17;;;;;;;51.33;29.35;;;6.10;99.90;;;;;;5031538;28;20091;-69
2022/03/16 00:09:43;;;;;;;49.97;30.42;;;6.10;99.90;;;;;;5031920;28;20087;-70
2022/03/16 00:12:10;;;;;;;50.88;28.08;;;6.10;99.90;;;;;;5031510;28;20041;-69
2022/03/16 00:14:36;;;;;;;51.42;29.83;;;6.00;99.90;;;;;;5032119;28;20049;-69
2022/03/16 00:17:02;;;;;;;46.72;29.17;;;6.00;99.90;;;;;;5031773;28;20086;-69
2022/03/16 00:19:28;;;;;;;66.45;31.00;;;6.00;99.90;;;;;;5029671;28;20102;-69
2022/03/16 00:21:54;;;;;;;47.67;28.33;;;6.00;99.90;;;;;;5031762;28;20045;-70
2022/03/16 00:24:19;;;;;;;51.55;30.20;;;6.00;99.90;;;;;;5030676;28;20511;-69
2022/03/16 00:26:45;;;;;;;45.88;28.55;;;5.90;99.90;;;;;;5030686;28;20046;-69
2022/03/16 00:29:10;;;;;;;51.03;28.88;;;5.90;99.90;;;;;;5031863;28;20049;-70
2022/03/16 00:31:36;;;;;;;52.88;30.20;;;5.90;99.90;;;;;;5031760;28;20045;-69
2022/03/16 00:34:02;;;;;;;52.58;29.70;;;5.90;99.90;;;;;;5029234;28;20057;-69
2022/03/16 00:36:28;;;;;;;50.72;30.20;;;5.90;99.90;;;;;;5031821;28;20064;-69
2022/03/16 00:38:53;;;;;;;54.42;29.20;;;5.90;99.90;;;;;;5031422;28;20404;-69
2022/03/16 00:41:19;;;;;;;51.65;31.80;;;5.90;99.90;;;;;;5030829;28;20494;-70
2022/03/16 00:43:45;;;;;;;53.83;29.90;;;5.90;99.90;;;;;;5029889;28;20474;-69
2022/03/16 00:46:10;;;;;;;51.80;30.27;;;5.80;99.90;;;;;;5031486;28;20033;-69
2022/03/16 00:48:36;;;;;;;53.70;31.77;;;5.80;99.90;;;;;;5030543;28;20064;-69
2022/03/16 00:51:01;;;;;;;51.50;29.83;;;5.80;99.90;;;;;;5031283;28;20068;-69
2022/03/16 00:53:27;;;;;;;57.30;32.75;;;5.90;99.90;;;;;;5031561;28;20047;-70
2022/03/16 00:55:53;;;;;;;54.45;29.92;;;5.80;99.90;;;;;;5028980;28;20037;-69
2022/03/16 00:58:19;;;;;;;56.45;31.17;;;5.80;99.90;;;;;;5029893;28;20054;-70
2022/03/16 01:00:45;;;;;;;56.03;31.98;;;5.70;99.90;;;;;;5030950;28;20111;-70
2022/03/16 01:03:11;;;;;;;55.42;31.52;;;5.70;99.90;;;;;;5029268;28;20473;-70
2022/03/16 01:05:37;;;;;;;46.45;30.00;;;5.70;99.90;;;;;;5031408;28;20080;-70
2022/03/16 01:08:03;;;;;;;51.72;29.42;;;5.70;99.90;;;;;;5029244;28;20057;-70
2022/03/16 01:10:28;;;;;;;55.70;29.23;;;5.70;99.90;;;;;;5030424;28;20133;-70
2022/03/16 01:12:55;;;;;;;50.95;31.75;;;5.60;99.90;;;;;;5029802;28;20045;-69
2022/03/16 01:15:23;;;;;;;50.97;29.40;;;5.60;99.90;;;;;;5029097;28;20048;-69
2022/03/16 01:17:52;;;;;;;48.00;29.38;;;5.60;99.90;;;;;;5030681;28;20037;-70
2022/03/16 01:20:18;;;;;;;51.78;28.50;;;5.50;99.90;;;;;;5029710;28;20041;-69
2022/03/16 01:22:45;;;;;;;50.85;28.48;;;5.50;99.90;;;;;;5030114;28;20053;-70
2022/03/16 01:25:11;;;;;;;43.33;27.73;;;5.50;99.90;;;;;;5030793;28;20057;-69
2022/03/16 01:27:37;;;;;;;43.10;27.42;;;5.40;99.90;;;;;;5029670;28;20106;-70
2022/03/16 01:30:03;;;;;;;44.30;27.45;;;5.30;99.90;;;;;;5028729;28;20128;-70
2022/03/16 01:32:29;;;;;;;43.35;27.05;;;5.30;99.90;;;;;;5038325;28;20191;-70
2022/03/16 01:34:54;;;;;;;43.40;26.75;;;5.20;99.90;;;;;;5050655;28;20124;-69
2022/03/16 01:37:20;;;;;;;44.83;26.40;;;5.10;99.90;;;;;;5037194;28;20046;-69
2022/03/16 01:39:45;;;;;;;45.83;27.50;;;5.00;99.90;;;;;;5030522;28;20095;-69
2022/03/16 01:42:11;;;;;;;44.42;28.00;;;4.90;99.90;;;;;;5038558;28;20280;-69
2022/03/16 01:44:52;;;;;;;48.40;28.88;;;4.90;99.90;;;;;;5035435;28;20041;-69
2022/03/16 01:47:21;;;;;;;44.58;27.33;;;4.90;99.90;;;;;;5046971;28;20037;-70
2022/03/16 01:49:49;;;;;;;45.00;26.83;;;4.80;99.90;;;;;;5030559;28;20069;-69
2022/03/16 01:52:20;;;;;;;39.72;26.10;;;4.70;99.90;;;;;;5028653;28;20037;-69
2022/03/16 01:54:47;;;;;;;44.10;25.05;;;4.70;99.90;;;;;;5041041;28;20068;-70
2022/03/16 01:57:13;;;;;;;43.17;25.02;;;4.70;99.90;;;;;;5050517;28;20122;-70
2022/03/16 01:59:40;;;;;;;42.80;25.65;;;4.60;99.90;;;;;;5049822;28;20041;-69
2022/03/16 02:02:06;;;;;;;49.88;30.40;;;4.60;99.90;;;;;;5049564;28;20519;-70
2022/03/16 02:04:32;;;;;;;46.17;27.75;;;4.50;99.90;;;;;;5050520;28;20049;-69
2022/03/16 02:06:59;;;;;;;45.65;27.73;;;4.50;99.90;;;;;;5048526;28;20331;-69
2022/03/16 02:09:25;;;;;;;44.53;27.52;;;4.50;99.90;;;;;;5049178;28;20041;-69
2022/03/16 02:11:51;;;;;;;49.78;26.13;;;4.50;99.90;;;;;;5049230;28;20447;-69
2022/03/16 02:14:19;;;;;;;47.55;27.98;;;4.50;99.90;;;;;;5050620;28;20102;-69
2022/03/16 02:16:46;;;;;;;40.80;26.58;;;4.40;99.90;;;;;;5049005;28;20087;-69
2022/03/16 02:19:12;;;;;;;43.63;26.83;;;4.40;99.90;;;;;;5048740;28;20137;-69
2022/03/16 02:21:40;;;;;;;44.45;27.75;;;4.40;99.90;;;;;;5051882;28;20124;-69
2022/03/16 02:24:07;;;;;;;45.92;26.90;;;4.40;99.90;;;;;;5053931;28;20036;-69
2022/03/16 02:26:33;;;;;;;43.40;25.20;;;4.40;99.90;;;;;;5051868;28;20139;-69
2022/03/16 02:28:58;;;;;;;43.05;27.20;;;4.30;99.90;;;;;;5052488;28;20152;-69
2022/03/16 02:31:25;;;;;;;38.75;25.48;;;4.30;99.90;;;;;;5054073;28;20698;-69
2022/03/16 02:33:50;;;;;;;41.75;25.67;;;4.30;99.90;;;;;;5051535;28;20056;-69
2022/03/16 02:36:16;;;;;;;50.60;28.88;;;4.30;99.90;;;;;;5053848;28;20045;-69
2022/03/16 02:38:42;;;;;;;46.95;28.25;;;4.20;99.90;;;;;;5053415;28;20049;-69
2022/03/16 02:41:08;;;;;;;44.17;27.58;;;4.20;99.90;;;;;;5052942;28;20057;-69
2022/03/16 02:43:33;;;;;;;38.50;25.02;;;4.20;99.90;;;;;;5052379;28;20045;-69
2022/03/16 02:45:59;;;;;;;45.10;26.05;;;4.20;99.90;;;;;;5053487;28;20044;-69
2022/03/16 02:48:25;;;;;;;36.47;24.65;;;4.20;99.90;;;;;;5052820;28;20380;-69
2022/03/16 02:50:50;;;;;;;54.58;29.75;;;4.20;99.90;;;;;;5053267;28;20045;-69
2022/03/16 02:53:16;;;;;;;53.00;29.35;;;4.20;99.90;;;;;;5052112;28;20442;-69
2022/03/16 02:55:44;;;;;;;47.83;27.85;;;4.20;99.90;;;;;;5051051;28;20095;-69
2022/03/16 02:58:10;;;;;;;46.28;26.77;;;4.20;99.90;;;;;;5052227;28;20080;-69
2022/03/16 03:00:36;;;;;;;69.57;31.63;;;4.20;99.90;;;;;;5051235;28;20049;-69
2022/03/16 03:03:02;;;;;;;57.40;32.20;;;4.30;99.90;;;;;;5045461;28;20139;-69
2022/03/16 03:05:28;;;;;;;50.45;27.73;;;4.30;99.90;;;;;;5044030;28;20591;-69
2022/03/16 03:07:53;;;;;;;69.75;29.02;;;4.30;99.90;;;;;;5046564;28;20399;-69
2022/03/16 03:10:19;;;;;;;69.30;30.58;;;4.30;99.90;;;;;;5033106;28;20037;-69
2022/03/16 03:12:44;;;;;;;45.95;28.42;;;4.30;99.90;;;;;;5033115;28;20046;-69
2022/03/16 03:15:13;;;;;;;55.45;31.77;;;4.30;99.90;;;;;;5032564;28;20527;-69
2022/03/16 03:17:39;;;;;;;48.42;28.75;;;4.40;99.90;;;;;;5031597;28;20053;-69
2022/03/16 03:20:05;;;;;;;47.28;28.35;;;4.30;99.90;;;;;;5032996;28;20666;-69
2022/03/16 03:22:30;;;;;;;50.22;30.20;;;4.30;99.90;;;;;;5032393;28;20046;-69
2022/03/16 03:24:56;;;;;;;46.60;27.10;;;4.30;99.90;;;;;;5031359;28;20057;-69
2022/03/16 03:27:22;;;;;;;44.10;26.50;;;4.30;99.90;;;;;;5031607;28;20041;-69
2022/03/16 03:29:48;;;;;;;44.65;25.85;;;4.30;99.90;;;;;;5031955;28;20574;-70
2022/03/16 03:32:13;;;;;;;50.10;26.40;;;4.20;99.90;;;;;;5031554;28;20047;-69
2022/03/16 03:34:39;;;;;;;47.50;26.85;;;4.10;99.90;;;;;;5031068;28;20041;-69
2022/03/16 03:37:08;;;;;;;42.45;26.42;;;4.10;99.90;;;;;;5032579;28;20041;-69
2022/03/16 03:39:34;;;;;;;47.80;28.33;;;4.10;99.90;;;;;;5038531;28;20072;-69
2022/03/16 03:41:59;;;;;;;40.90;27.60;;;4.10;99.90;;;;;;5041150;28;20111;-69
2022/03/16 03:44:25;;;;;;;47.55;28.90;;;4.10;99.90;;;;;;5050911;28;20049;-69
2022/03/16 03:46:50;;;;;;;42.65;25.60;;;4.10;99.90;;;;;;5050105;28;20044;-69
2022/03/16 03:49:16;;;;;;;48.22;27.23;;;4.10;99.90;;;;;;5031386;28;20064;-69
2022/03/16 03:51:41;;;;;;;42.65;26.40;;;4.10;99.90;;;;;;5031276;28;20534;-69
2022/03/16 03:54:07;;;;;;;51.92;30.48;;;4.00;99.90;;;;;;5032620;28;20117;-69
2022/03/16 03:56:33;;;;;;;47.15;29.48;;;4.00;99.90;;;;;;5032541;28;20419;-69
2022/03/16 03:58:58;;;;;;;63.35;30.52;;;4.10;99.90;;;;;;5031269;28;20045;-69
2022/03/16 04:01:24;;;;;;;50.45;29.17;;;4.10;99.90;;;;;;5032405;28;20075;-69
2022/03/16 04:03:50;;;;;;;55.05;32.10;;;4.00;99.90;;;;;;5031988;28;20403;-69
2022/03/16 04:06:16;;;;;;;53.30;29.45;;;4.10;99.90;;;;;;5031313;28;20559;-69
2022/03/16 04:08:42;;;;;;;54.20;30.15;;;4.10;99.90;;;;;;5031719;28;20129;-69
2022/03/16 04:11:09;;;;;;;46.97;26.73;;;4.00;99.90;;;;;;5030781;28;20045;-69
2022/03/16 04:13:35;;;;;;;54.75;30.60;;;4.10;99.90;;;;;;5035951;28;20103;-69
2022/03/16 04:16:00;;;;;;;44.45;27.50;;;4.10;99.90;;;;;;5044978;28;20045;-69
2022/03/16 04:18:27;;;;;;;51.30;30.20;;;4.10;99.90;;;;;;5038098;28;20518;-69
2022/03/16 04:20:53;;;;;;;54.10;30.25;;;4.10;99.90;;;;;;5044068;28;20543;-69
2022/03/16 04:23:19;;;;;;;53.80;29.88;;;4.10;99.90;;;;;;5030570;28;20045;-69
2022/03/16 04:25:45;;;;;;;53.28;31.00;;;4.20;99.90;;;;;;5030729;28;20137;-69
2022/03/16 04:28:11;;;;;;;49.60;28.40;;;4.20;99.90;;;;;;5031911;28;20462;-69
2022/03/16 04:30:38;;;;;;;50.67;29.45;;;4.10;99.90;;;;;;5031713;28;20051;-69
2022/03/16 04:33:04;;;;;;;53.15;29.30;;;4.10;99.90;;;;;;5031014;28;20514;-69
2022/03/16 04:35:29;;;;;;;42.55;27.15;;;4.10;99.90;;;;;;5031621;28;20046;-69
2022/03/16 04:37:55;;;;;;;42.83;27.10;;;4.10;99.90;;;;;;5031633;28;20407;-69
2022/03/16 04:40:20;;;;;;;46.05;28.05;;;4.00;99.90;;;;;;5029961;28;20054;-69
2022/03/16 04:42:46;;;;;;;49.45;28.30;;;4.00;99.90;;;;;;5029585;28;20061;-69
2022/03/16 04:45:12;;;;;;;42.80;25.02;;;4.00;99.90;;;;;;5030223;28;20100;-69
2022/03/16 04:47:38;;;;;;;55.60;28.98;;;3.90;99.90;;;;;;5030871;28;20107;-69
2022/03/16 04:50:05;;;;;;;53.63;30.17;;;3.90;99.90;;;;;;5031317;28;20041;-69
2022/03/16 04:52:31;;;;;;;45.25;27.75;;;3.90;99.90;;;;;;5031323;28;20069;-69
2022/03/16 04:54:57;;;;;;;50.38;28.58;;;3.90;99.90;;;;;;5030441;28;20456;-69
2022/03/16 04:57:22;;;;;;;49.28;28.70;;;3.90;99.90;;;;;;5031463;28;20087;-69
2022/03/16 04:59:48;;;;;;;51.92;27.38;;;3.90;99.90;;;;;;5031300;28;20472;-69
2022/03/16 05:02:13;;;;;;;52.22;29.05;;;3.90;99.90;;;;;;5029271;28;20068;-69
2022/03/16 05:04:39;;;;;;;43.03;27.10;;;3.90;99.90;;;;;;5031144;28;20407;-69
2022/03/16 05:07:04;;;;;;;49.92;30.10;;;3.90;99.90;;;;;;5029853;28;20045;-69
2022/03/16 05:09:30;;;;;;;54.28;30.15;;;3.90;99.90;;;;;;5030619;28;20442;-69
2022/03/16 05:11:56;;;;;;;43.22;25.20;;;4.00;99.90;;;;;;5030995;28;20051;-69
2022/03/16 05:14:21;;;;;;;45.70;27.83;;;4.00;99.90;;;;;;5031059;28;20130;-69
2022/03/16 05:16:47;;;;;;;47.92;28.25;;;4.00;99.90;;;;;;5030141;28;20045;-69
2022/03/16 05:19:12;;;;;;;45.10;28.35;;;4.00;99.90;;;;;;5035369;28;20053;-69
2022/03/16 05:21:38;;;;;;;56.08;28.63;;;4.00;99.90;;;;;;5029106;28;20080;-69
2022/03/16 05:24:05;;;;;;;50.17;26.65;;;4.00;99.90;;;;;;5029602;28;20045;-69
2022/03/16 05:26:30;;;;;;;44.80;27.77;;;4.10;99.90;;;;;;5030964;28;20048;-69
2022/03/16 05:28:56;;;;;;;51.53;29.17;;;4.10;99.90;;;;;;5029932;28;20049;-69
2022/03/16 05:31:23;;;;;;;55.45;30.92;;;4.10;99.90;;;;;;5030913;28;20041;-69
2022/03/16 05:33:49;;;;;;;48.58;30.80;;;4.10;99.90;;;;;;5029331;28;20060;-69
2022/03/16 05:36:15;;;;;;;46.00;26.90;;;4.10;99.90;;;;;;5034313;28;20048;-69
2022/03/16 05:38:41;;;;;;;48.13;29.05;;;4.10;99.90;;;;;;5032178;28;20056;-69
2022/03/16 05:41:06;;;;;;;47.03;28.25;;;4.10;99.90;;;;;;5044165;28;20049;-69
2022/03/16 05:43:32;;;;;;;52.15;28.83;;;4.20;99.90;;;;;;5039584;28;20454;-69
2022/03/16 05:45:58;;;;;;;52.78;28.02;;;4.10;99.90;;;;;;5031983;28;20049;-69
2022/03/16 05:48:23;;;;;;;54.63;29.05;;;4.10;99.90;;;;;;5029352;28;20049;-69
2022/03/16 05:50:49;;;;;;;49.88;28.90;;;4.10;99.90;;;;;;5029614;28;20082;-69
2022/03/16 05:53:15;;;;;;;52.85;28.77;;;4.10;99.90;;;;;;5029363;28;20446;-69
2022/03/16 05:55:41;;;;;;;53.35;27.98;;;4.10;99.90;;;;;;5031947;28;20395;-69
2022/03/16 05:58:07;;;;;;;49.53;28.45;;;4.10;99.90;;;;;;5033993;28;20084;-69
2022/03/16 06:00:34;;;;;;;49.72;28.38;;;4.10;99.90;;;;;;5034396;28;20388;-69
2022/03/16 06:03:00;;;;;;;40.35;24.52;;;4.00;99.90;;;;;;5034142;28;20046;-69
2022/03/16 06:05:26;;;;;;;44.53;27.33;;;4.00;99.90;;;;;;5033966;28;20483;-69
2022/03/16 06:07:51;;;;;;;47.47;27.48;;;4.10;99.90;;;;;;5039998;28;20395;-69
2022/03/16 06:10:18;;;;;;;50.95;28.63;;;4.00;99.90;;;;;;5041915;28;20048;-69
2022/03/16 06:13:01;;;;;;;46.33;26.70;;;4.00;99.90;;;;;;5044795;28;20041;-69
2022/03/16 06:15:29;;;;;;;52.17;28.65;;;4.00;99.90;;;;;;5049851;28;20124;-69
2022/03/16 06:17:56;;;;;;;50.25;28.83;;;4.00;99.90;;;;;;5033146;28;20048;-69
2022/03/16 06:20:23;;;;;;;46.63;27.63;;;4.00;99.90;;;;;;5033052;28;20049;-69
2022/03/16 06:22:49;;;;;;;45.88;27.88;;;4.00;99.90;;;;;;5033944;28;20045;-69
2022/03/16 06:25:14;;;;;;;44.50;26.52;;;4.10;99.90;;;;;;5036767;28;20053;-69
2022/03/16 06:27:40;;;;;;;47.47;27.45;;;4.10;99.90;;;;;;5033275;28;20049;-70
2022/03/16 06:30:08;;;;;;;48.97;26.33;;;4.10;99.90;;;;;;5035223;28;20561;-69
2022/03/16 06:32:34;;;;;;;45.50;28.65;;;4.20;99.90;;;;;;5040260;28;20044;-69
2022/03/16 06:34:59;;;;;;;49.28;30.33;;;4.20;99.90;;;;;;5052341;28;20487;-69
2022/03/16 06:37:25;;;;;;;47.70;29.35;;;4.20;99.90;;;;;;5037228;28;20048;-69
2022/03/16 06:39:51;;;;;;;49.83;27.40;;;4.20;99.90;;;;;;5032743;28;20057;-69
2022/03/16 06:42:16;;;;;;;43.50;26.20;;;4.30;99.90;;;;;;5032788;28;20053;-69
2022/03/16 06:44:42;;;;;;;45.08;25.27;;;4.20;99.90;;;;;;5037018;28;20049;-69
2022/03/16 06:47:07;;;;;;;47.22;27.48;;;4.30;99.90;;;;;;5033818;28;20060;-70
2022/03/16 06:49:33;;;;;;;45.42;27.65;;;4.30;99.90;;;;;;5046428;28;20081;-70
2022/03/16 06:51:58;;;;;;;48.28;27.65;;;4.30;99.90;;;;;;5032146;28;20054;-70
2022/03/16 06:54:24;;;;;;;50.17;28.80;;;4.30;99.90;;;;;;5052508;28;20041;-70
2022/03/16 06:56:49;;;;;;;39.50;23.73;;;4.30;99.90;;;;;;5044366;28;20045;-71
2022/03/16 06:59:15;;;;;;;40.10;24.50;;;4.30;99.90;;;;;;5037595;28;20329;-70
2022/03/16 07:01:41;;;;;;;42.60;25.92;;;4.30;99.90;;;;;;5062136;28;20468;-70
2022/03/16 07:04:06;;;;;;;45.65;26.17;;;4.30;99.90;;;;;;5032323;28;20391;-70
2022/03/16 07:06:32;;;;;;;44.10;26.17;;;4.30;99.90;;;;;;5046727;28;20052;-70
2022/03/16 07:08:57;;;;;;;41.17;26.75;;;4.40;99.90;;;;;;5050434;28;20045;-70
2022/03/16 07:11:23;;;;;;;46.45;27.33;;;4.30;99.90;;;;;;5051416;28;20041;-70
2022/03/16 07:16:33;;;;;;;53.92;31.70;;;4.40;99.90;;;;;;5047449;28;20515;-69
2022/03/16 07:19:00;;;;;;;46.70;27.45;;;4.50;99.90;;;;;;5032969;28;20034;-69
2022/03/16 07:21:26;;;;;;;49.67;28.73;;;4.50;99.90;;;;;;5037716;28;20053;-70
2022/03/16 07:23:51;;;;;;;43.35;27.52;;;4.60;99.90;;;;;;5033499;28;20048;-70
2022/03/16 07:26:17;;;;;;;48.10;28.30;;;4.60;99.90;;;;;;5043608;28;20045;-70
2022/03/16 07:28:42;;;;;;;48.05;28.70;;;4.70;99.90;;;;;;5044126;28;20523;-69
2022/03/16 07:31:08;;;;;;;56.72;30.08;;;4.80;99.90;;;;;;5046561;28;20072;-69
2022/03/16 07:33:35;;;;;;;48.78;30.08;;;5.00;99.90;;;;;;5038198;28;20451;-69
2022/03/16 07:36:01;;;;;;;52.72;30.55;;;5.10;99.90;;;;;;5030492;28;20495;-69
2022/03/16 07:38:26;;;;;;;50.85;32.13;;;5.20;99.90;;;;;;5031515;28;20050;-69
2022/03/16 07:40:52;;;;;;;50.90;32.08;;;5.20;99.90;;;;;;5036133;28;20041;-70
2022/03/16 07:43:18;;;;;;;52.38;32.03;;;5.40;99.90;;;;;;5050322;28;20056;-70
2022/03/16 07:45:44;;;;;;;55.38;32.67;;;5.40;99.90;;;;;;5051168;28;20041;-70
2022/03/16 07:48:09;;;;;;;54.45;30.45;;;5.50;99.90;;;;;;5052458;28;20502;-69
2022/03/16 07:50:35;;;;;;;55.22;32.60;;;5.60;99.90;;;;;;5048566;28;20041;-69
2022/03/16 07:53:01;;;;;;;50.70;30.67;;;5.70;99.90;;;;;;5037970;28;20140;-69
2022/03/16 07:55:27;;;;;;;52.75;30.13;;;5.80;99.90;;;;;;5032226;28;20573;-69
2022/03/16 07:57:55;;;;;;;42.40;28.98;;;5.80;99.90;;;;;;5040886;28;20065;-69
2022/03/16 08:00:21;;;;;;;67.28;29.80;;;6.00;99.90;;;;;;5052413;28;20080;-69
2022/03/16 08:02:47;;;;;;;49.97;29.65;;;6.10;99.90;;;;;;5051753;28;20491;-70
2022/03/16 08:05:14;;;;;;;45.85;29.17;;;6.20;99.90;;;;;;5039173;28;20053;-69
2022/03/16 08:07:41;;;;;;;40.88;29.85;;;6.30;99.90;;;;;;5040796;28;20049;-69
2022/03/16 08:10:07;;;;;;;48.70;28.38;;;6.40;99.90;;;;;;5052009;28;20045;-69
2022/03/16 08:12:32;;;;;;;50.13;30.63;;;6.40;99.90;;;;;;5051327;28;20063;-69
2022/03/16 08:15:00;;;;;;;47.63;30.10;;;6.60;99.90;;;;;;5034768;28;20042;-70
2022/03/16 08:17:25;;;;;;;52.00;29.15;;;6.70;99.90;;;;;;5029840;28;20125;-69
2022/03/16 08:19:51;;;;;;;47.47;31.27;;;6.80;99.90;;;;;;5032296;28;20849;-70
2022/03/16 08:22:29;;;;;;;47.83;28.30;;;6.90;99.90;;;;;;5051751;28;20144;-69
2022/03/16 08:24:56;;;;;;;46.75;29.80;;;7.00;99.90;;;;;;5036060;28;20064;-72
2022/03/16 08:27:23;;;;;;;41.42;28.35;;;7.10;99.90;;;;;;5031869;28;20072;-71
2022/03/16 08:29:50;;;;;;;38.95;26.73;;;7.10;99.90;;;;;;5031550;28;20055;-70
2022/03/16 08:32:16;;;;;;;44.40;27.33;;;7.20;99.90;;;;;;5029932;28;20472;-69
2022/03/16 08:34:41;;;;;;;42.10;29.08;;;7.40;99.90;;;;;;5031370;28;20124;-74
2022/03/16 08:37:07;;;;;;;38.95;25.83;;;7.50;99.90;;;;;;5029839;28;20052;-70
2022/03/16 08:39:33;;;;;;;40.67;27.33;;;7.60;99.90;;;;;;5037015;28;20069;-71
2022/03/16 08:41:58;;;;;;;39.45;26.15;;;7.70;99.90;;;;;;5037382;28;20679;-71
2022/03/16 08:44:24;;;;;;;39.97;25.95;;;7.80;99.90;;;;;;5050243;28;20105;-71
2022/03/16 08:46:50;;;;;;;33.63;24.45;;;7.80;99.90;;;;;;5038966;28;20033;-71
2022/03/16 08:49:21;;;;;;;37.47;27.00;;;7.90;99.90;;;;;;5031478;28;20045;-71
2022/03/16 08:51:47;;;;;;;38.25;24.88;;;7.90;99.90;;;;;;5031296;28;20400;-71
2022/03/16 08:54:13;;;;;;;41.30;25.98;;;8.00;99.90;;;;;;5049427;28;20045;-72
2022/03/16 08:56:38;;;;;;;41.05;25.88;;;8.00;99.90;;;;;;5051044;28;20492;-73
2022/03/16 08:59:04;;;;;;;36.08;26.38;;;8.10;99.90;;;;;;5051323;28;20037;-73
2022/03/16 09:01:30;;;;;;;33.65;24.45;;;8.20;99.90;;;;;;5039136;28;20041;-73
2022/03/16 09:03:55;;;;;;;34.78;23.35;;;8.30;99.90;;;;;;5030416;28;20045;-72
2022/03/16 09:06:21;;;;;;;34.58;25.13;;;8.40;99.90;;;;;;5036017;28;20064;-73
2022/03/16 09:08:47;;;;;;;33.95;24.60;;;8.50;99.90;;;;;;5047762;28;20052;-73
2022/03/16 09:11:13;;;;;;;31.02;22.95;;;8.60;99.90;;;;;;5050964;28;20044;-73
2022/03/16 09:13:39;;;;;;;39.75;23.83;;;8.80;99.90;;;;;;5048742;28;20051;-73
2022/03/16 09:16:05;;;;;;;35.55;23.75;;;8.90;99.90;;;;;;5040591;28;20056;-72
2022/03/16 09:18:30;;;;;;;36.92;23.65;;;9.10;99.90;;;;;;5030065;28;20053;-73
2022/03/16 09:20:57;;;;;;;33.83;23.35;;;9.30;99.90;;;;;;5037079;28;20348;-73
2022/03/16 09:23:22;;;;;;;35.78;23.73;;;9.40;99.90;;;;;;5029570;28;20049;-73
2022/03/16 09:25:48;;;;;;;30.27;22.90;;;9.50;99.90;;;;;;5030355;28;20064;-74
2022/03/16 09:28:14;;;;;;;33.97;24.30;;;9.50;99.90;;;;;;5028936;28;20045;-72
2022/03/16 09:30:39;;;;;;;38.05;24.15;;;9.50;99.90;;;;;;5050858;28;20052;-72
2022/03/16 09:33:05;;;;;;;36.60;24.45;;;9.60;99.90;;;;;;5036187;28;20037;-72
2022/03/16 09:35:33;;;;;;;37.05;24.38;;;9.50;99.90;;;;;;5037710;28;20403;-72
2022/03/16 09:37:59;;;;;;;40.65;23.70;;;9.50;99.90;;;;;;5042324;28;20053;-72
2022/03/16 09:40:25;;;;;;;37.80;24.23;;;9.50;99.90;;;;;;5053162;28;20515;-71
2022/03/16 09:42:54;;;;;;;40.40;26.10;;;9.60;99.90;;;;;;5045805;28;20037;-71
2022/03/16 09:45:21;;;;;;;33.88;25.20;;;9.60;99.90;;;;;;5037209;28;20029;-72
2022/03/16 09:47:49;;;;;;;37.67;26.35;;;9.70;99.90;;;;;;5036791;28;20442;-72
2022/03/16 09:50:19;;;;;;;41.17;26.73;;;9.90;99.90;;;;;;5036638;28;20568;-72
2022/03/16 09:52:46;;;;;;;38.83;24.63;;;10.00;99.90;;;;;;5035683;28;20053;-71
2022/03/16 09:55:12;;;;;;;36.05;24.15;;;10.20;99.90;;;;;;5037492;28;20126;-72
2022/03/16 09:57:37;;;;;;;37.05;22.70;;;10.30;99.90;;;;;;5036557;28;20081;-71
2022/03/16 10:00:03;;;;;;;30.20;21.35;;;10.50;99.90;;;;;;5035415;28;20057;-72
2022/03/16 10:02:29;;;;;;;32.55;22.77;;;10.60;99.90;;;;;;5046921;28;20129;-72
2022/03/16 10:04:54;;;;;;;31.42;22.17;;;10.70;99.90;;;;;;5048384;28;20099;-71
2022/03/16 10:07:29;;;;;;;26.77;19.30;;;10.80;99.90;;;;;;5035779;28;20068;-72
2022/03/16 10:15:25;;;;;;;27.92;17.13;;;11.10;99.90;;;;;;5054162;28;20132;-72
2022/03/16 10:17:59;;;;;;;24.95;17.02;;;11.10;99.90;;;;;;5044335;28;20129;-72
2022/03/16 10:20:39;;;;;;;22.45;16.80;;;11.30;99.90;;;;;;5051291;28;20073;-72
2022/03/16 10:23:14;;;;;;;22.70;15.93;;;11.30;99.90;;;;;;5050697;28;20399;-73
2022/03/16 10:25:42;;;;;;;21.83;16.17;;;11.40;99.90;;;;;;5037468;28;20466;-73
2022/03/16 10:28:11;;;;;;;23.05;15.52;;;11.40;99.90;;;;;;5037565;28;20048;-74
2022/03/16 10:30:50;;;;;;;20.15;15.73;;;11.50;99.90;;;;;;5035226;28;20049;-73
2022/03/16 10:33:16;;;;;;;24.70;16.20;;;11.50;99.90;;;;;;5036286;28;20053;-73
2022/03/16 10:36:03;;;;;;;20.77;14.05;;;11.60;99.90;;;;;;5036549;28;20082;-72
2022/03/16 10:38:36;;;;;;;21.77;14.90;;;11.60;99.90;;;;;;5035104;28;20135;-72
2022/03/16 10:47:15;;;;;;;15.75;11.85;;;11.80;99.90;;;;;;5030768;28;20064;-73
2022/03/16 10:49:41;;;;;;;19.67;13.20;;;11.80;99.90;;;;;;5035177;28;20045;-70
2022/03/16 10:52:19;;;;;;;18.30;13.00;;;11.70;99.90;;;;;;5043117;28;20477;-72
2022/03/16 10:54:48;;;;;;;18.48;12.85;;;11.70;99.90;;;;;;5035104;28;20132;-70
2022/03/16 10:57:15;;;;;;;17.05;12.93;;;11.70;99.90;;;;;;5039777;28;20053;-69
2022/03/16 10:59:42;;;;;;;17.50;13.52;;;11.80;99.90;;;;;;5035377;28;20041;-70
2022/03/16 11:02:13;;;;;;;17.90;12.27;;;11.80;99.90;;;;;;5049857;28;20120;-70
2022/03/16 11:04:45;;;;;;;17.42;14.27;;;11.90;99.90;;;;;;5033188;28;20041;-70
2022/03/16 11:07:11;;;;;;;16.25;12.40;;;12.00;99.90;;;;;;5032275;28;20042;-70
2022/03/16 11:09:38;;;;;;;14.98;12.43;;;12.10;99.90;;;;;;5037381;28;20051;-69
2022/03/16 11:14:50;;;;;;;14.95;13.05;;;12.30;99.90;;;;;;5044949;28;20076;-70
2022/03/16 11:17:17;;;;;;;15.90;11.88;;;12.40;99.90;;;;;;5045607;28;20613;-70
2022/03/16 11:19:47;;;;;;;13.40;10.18;;;12.50;99.90;;;;;;5032536;28;20057;-70
2022/03/16 11:22:20;;;;;;;12.93;9.07;;;12.50;99.90;;;;;;5030816;28;20069;-70
2022/03/16 11:24:50;;;;;;;13.50;10.10;;;12.50;99.90;;;;;;5032252;28;20122;-70
2022/03/16 11:27:24;;;;;;;15.85;10.07;;;12.50;99.90;;;;;;5031875;28;20050;-70
2022/03/16 11:30:07;;;;;;;13.07;10.15;;;12.50;99.90;;;;;;5035820;28;20037;-70
2022/03/16 11:32:36;;;;;;;;;;;12.70;99.90;;;;;;5033070;28;20098;-70
2022/03/16 11:35:02;;;;;;;16.77;11.23;;;12.80;99.90;;;;;;5046732;28;20397;-70
2022/03/16 11:37:34;;;;;;;12.60;10.90;;;12.80;99.90;;;;;;5052424;28;20041;-69
2022/03/16 11:40:20;;;;;;;13.85;11.35;;;12.90;99.90;;;;;;5051048;28;20059;-69
2022/03/16 11:43:20;;;;;;;15.45;11.48;;;12.90;99.90;;;;;;5043005;28;20036;-69
2022/03/16 11:45:54;;;;;;;16.25;11.98;;;13.00;99.90;;;;;;5018207;28;20065;-70
2022/03/16 11:48:32;;;;;;;17.58;12.82;;;13.10;99.90;;;;;;5052033;28;20041;-69
2022/03/16 11:51:20;;;;;;;12.95;11.13;;;13.10;99.90;;;;;;5050987;28;20052;-70
2022/03/16 11:53:57;;;;;;;16.25;11.38;;;13.30;99.90;;;;;;5049938;28;20056;-69
2022/03/16 11:56:43;;;;;;;18.33;11.93;;;13.40;99.90;;;;;;5051007;28;20049;-69
2022/03/16 11:59:28;;;;;;;16.08;11.70;;;13.50;99.90;;;;;;5051247;28;20057;-69
2022/03/16 12:02:05;;;;;;;14.68;11.13;;;13.60;99.90;;;;;;5041700;28;20049;-69
2022/03/16 12:04:32;;;;;;;14.63;10.98;;;13.60;99.90;;;;;;5050952;28;20688;-69
2022/03/16 12:07:02;;;;;;;14.27;11.43;;;13.70;99.90;;;;;;5031925;28;20045;-70
2022/03/16 12:09:38;;;;;;;20.70;12.85;;;13.80;99.90;;;;;;5030588;28;20046;-69
2022/03/16 12:15:22;;;;;;;15.10;11.27;;;13.80;99.90;;;;;;5030674;28;20045;-70
2022/03/16 12:17:56;;;;;;;16.58;11.90;;;13.80;99.90;;;;;;5042939;28;20077;-70
2022/03/16 12:20:25;;;;;;;17.50;12.48;;;13.90;99.90;;;;;;5036365;28;20498;-69
2022/03/16 12:22:52;;;;;;;17.75;11.90;;;13.90;99.90;;;;;;5041987;28;20056;-69
2022/03/16 12:25:27;;;;;;;15.23;11.88;;;13.90;99.90;;;;;;5040957;28;20072;-69
2022/03/16 12:31:00;;;;;;;14.93;11.55;;;14.00;99.90;;;;;;5033748;28;20037;-69
2022/03/16 12:33:37;;;;;;;13.98;11.40;;;14.00;99.90;;;;;;5031482;28;20491;-69
2022/03/16 12:36:04;;;;;;;16.65;11.50;;;14.00;99.90;;;;;;5031584;28;20125;-69
2022/03/16 12:38:33;;;;;;;14.63;10.02;;;14.10;99.90;;;;;;5031049;28;20045;-70
2022/03/16 12:43:45;;;;;;;14.40;10.65;;;14.10;99.90;;;;;;5031519;28;20049;-69
2022/03/16 12:46:30;;;;;;;14.10;10.90;;;14.20;99.90;;;;;;5031535;28;20128;-69
2022/03/16 12:48:59;;;;;;;13.82;10.18;;;14.20;99.90;;;;;;5046649;28;20048;-70
2022/03/16 12:51:45;;;;;;;16.23;11.27;;;14.20;99.90;;;;;;5047743;28;20037;-70
2022/03/16 12:54:23;;;;;;;15.13;11.40;;;14.20;99.90;;;;;;5039150;28;20056;-70
2022/03/16 12:56:51;;;;;;;12.77;10.68;;;14.20;99.90;;;;;;5030124;28;20060;-70
2022/03/16 12:59:25;;;;;;;15.30;10.95;;;14.30;99.90;;;;;;5030214;28;20541;-67
2022/03/16 13:01:52;;;;;;;15.98;10.15;;;14.30;99.90;;;;;;5033680;28;20041;-67
2022/03/16 13:04:19;;;;;;;14.93;11.45;;;14.30;99.90;;;;;;5034376;28;20044;-68